Terminal Aerodrome Forecast
Issued by NWS Sioux Falls, SD

Home | Current Version | Previous Version | Text Only | Print | Product List | Glossary Off
Versions: 1 2 3 4 5 6 7 8 9 10 11 12 13 14 15 16 17 18 19 20

772
FTUS43 KFSD 231120
TAFHON
TAF
KHON 231120Z 2312/2412 10011KT 5SM BR VCTS OVC012CB
     FM231500 11012KT P6SM VCTS BKN020CB
     FM231800 12014G21KT P6SM SKC
     FM240200 13014G20KT P6SM SKC WS015/16045KT
     FM240700 14013G19KT P6SM SKC=

USA.gov is the U.S. government's official web portal to all federal, state and local government web resources and services.